Time;durP1;ratioP1;P1;durP2;ratioP2;P2;SDS_P1;SDS_P2;PMS_P1;PMS_P2;Temp;Humidity;BMP_temperature;BMP_pressure;BME280_temperature;BME280_humidity;BME280_pressure;Samples;Min_cycle;Max_cycle;Signal;HPM_P1;HPM_P2
2023/08/20 00:01:30;;;;;;;6.67;3.83;;;;;;;;;;5055389;28;20208;-76
2023/08/20 00:04:35;;;;;;;6.27;4.10;;;;;;;;;;5043337;28;20188;-76
2023/08/20 00:07:40;;;;;;;9.07;4.53;;;;;;;;;;5055596;28;20192;-76
2023/08/20 00:10:44;;;;;;;7.53;4.23;;;;;;;;;;5055535;28;20180;-76
2023/08/20 00:13:48;;;;;;;8.93;4.17;;;;;;;;;;5031908;28;20172;-76
2023/08/20 00:16:52;;;;;;;8.17;4.40;;;;;;;;;;5055449;28;20184;-75
2023/08/20 00:19:57;;;;;;;9.07;4.10;;;;;;;;;;5043176;28;20181;-76
2023/08/20 00:23:01;;;;;;;6.57;4.00;;;;;;;;;;5031757;28;20208;-76
2023/08/20 00:26:06;;;;;;;5.97;4.10;;;;;;;;;;5055228;28;20180;-76
2023/08/20 00:29:10;;;;;;;7.20;4.43;;;;;;;;;;5042998;28;20180;-75
2023/08/20 00:32:14;;;;;;;6.57;4.30;;;;;;;;;;5042787;28;20219;-75
2023/08/20 00:35:18;;;;;;;9.43;4.13;;;;;;;;;;5055014;28;20203;-75
2023/08/20 00:38:23;;;;;;;10.13;4.60;;;;;;;;;;5042906;28;20184;-75
2023/08/20 00:41:27;;;;;;;7.53;4.40;;;;;;;;;;5042788;28;20208;-75
2023/08/20 00:44:31;;;;;;;6.13;4.40;;;;;;;;;;5031440;28;20638;-74
2023/08/20 00:47:36;;;;;;;10.23;4.30;;;;;;;;;;5042702;28;20180;-74
2023/08/20 00:50:40;;;;;;;9.57;4.97;;;;;;;;;;5042611;28;20176;-73
2023/08/20 00:53:44;;;;;;;12.03;4.83;;;;;;;;;;5054826;28;20506;-74
2023/08/20 00:56:50;;;;;;;6.83;4.67;;;;;;;;;;5031332;28;20213;-74
2023/08/20 00:59:54;;;;;;;8.00;4.87;;;;;;;;;;5030983;28;20185;-74
2023/08/20 01:02:58;;;;;;;8.67;4.63;;;;;;;;;;5042675;28;20212;-73
2023/08/20 01:06:16;;;;;;;6.30;4.57;;;;;;;;;;5042285;28;20176;-73
2023/08/20 01:09:32;;;;;;;7.20;4.23;;;;;;;;;;5042153;28;20666;-73
2023/08/20 01:12:38;;;;;;;11.53;4.47;;;;;;;;;;5041830;28;20220;-73
2023/08/20 01:15:42;;;;;;;5.53;4.60;;;;;;;;;;5030813;28;20204;-73
2023/08/20 01:18:47;;;;;;;6.27;4.13;;;;;;;;;;5042017;28;20184;-73
2023/08/20 01:22:20;;;;;;;9.60;4.40;;;;;;;;;;5030531;28;20204;-73
2023/08/20 01:25:51;;;;;;;9.00;4.73;;;;;;;;;;5041950;28;20181;-73
2023/08/20 01:28:56;;;;;;;7.47;4.00;;;;;;;;;;5041878;28;20176;-73
2023/08/20 01:32:00;;;;;;;7.80;4.80;;;;;;;;;;5030331;28;20215;-73
2023/08/20 01:35:04;;;;;;;6.27;4.90;;;;;;;;;;5041553;28;20274;-73
2023/08/20 01:38:09;;;;;;;6.83;4.33;;;;;;;;;;5041671;28;20180;-73
2023/08/20 01:41:14;;;;;;;6.37;4.53;;;;;;;;;;5041568;28;20212;-72
2023/08/20 01:44:18;;;;;;;6.70;4.60;;;;;;;;;;5030268;28;20508;-73
2023/08/20 01:47:22;;;;;;;7.27;4.73;;;;;;;;;;5041595;28;20172;-73
2023/08/20 01:50:26;;;;;;;6.43;4.47;;;;;;;;;;5030073;28;20180;-73
2023/08/20 01:53:30;;;;;;;7.07;4.90;;;;;;;;;;5041377;28;20196;-73
2023/08/20 01:56:34;;;;;;;9.00;5.00;;;;;;;;;;5041535;28;20184;-73
2023/08/20 01:59:39;;;;;;;5.57;4.77;;;;;;;;;;5041384;28;20176;-73
2023/08/20 02:02:43;;;;;;;9.73;5.00;;;;;;;;;;5041201;28;20211;-73
2023/08/20 02:05:47;;;;;;;6.03;4.90;;;;;;;;;;5041158;28;20180;-73
2023/08/20 02:08:51;;;;;;;7.67;4.93;;;;;;;;;;5041104;28;20184;-73
2023/08/20 02:11:55;;;;;;;6.97;4.67;;;;;;;;;;5041033;28;20215;-73
2023/08/20 02:14:59;;;;;;;11.30;5.67;;;;;;;;;;5041123;28;20179;-73
2023/08/20 02:18:04;;;;;;;5.30;4.80;;;;;;;;;;5053400;28;20192;-72
2023/08/20 02:21:08;;;;;;;7.43;5.00;;;;;;;;;;5018539;28;20627;-73
2023/08/20 02:24:12;;;;;;;10.03;4.80;;;;;;;;;;5041134;28;20631;-73
2023/08/20 02:27:16;;;;;;;6.73;5.23;;;;;;;;;;5039564;28;20189;-73
2023/08/20 02:30:21;;;;;;;9.73;5.00;;;;;;;;;;5033235;28;20180;-73
2023/08/20 02:33:25;;;;;;;8.60;5.70;;;;;;;;;;5009763;28;20229;-73
2023/08/20 02:36:30;;;;;;;8.20;5.20;;;;;;;;;;5021195;28;20181;-73
2023/08/20 02:39:34;;;;;;;7.80;4.67;;;;;;;;;;5009698;28;20176;-74
2023/08/20 02:42:39;;;;;;;8.33;4.43;;;;;;;;;;5020876;28;20208;-73
2023/08/20 02:45:43;;;;;;;9.27;5.17;;;;;;;;;;5020850;28;20180;-73
2023/08/20 02:48:48;;;;;;;10.07;5.20;;;;;;;;;;5032944;28;20196;-73
2023/08/20 02:51:52;;;;;;;6.53;4.70;;;;;;;;;;5032549;28;20220;-74
2023/08/20 02:54:56;;;;;;;8.43;5.50;;;;;;;;;;5020877;28;20192;-74
2023/08/20 02:58:00;;;;;;;6.77;4.83;;;;;;;;;;5032583;28;20647;-74
2023/08/20 03:01:04;;;;;;;8.67;4.77;;;;;;;;;;5032846;28;20176;-73
2023/08/20 03:04:08;;;;;;;5.73;4.60;;;;;;;;;;5032310;28;20181;-73
2023/08/20 03:07:12;;;;;;;6.97;5.37;;;;;;;;;;5032971;28;20635;-74
2023/08/20 03:10:17;;;;;;;7.50;5.17;;;;;;;;;;5009403;28;20177;-73
2023/08/20 03:13:21;;;;;;;5.93;4.80;;;;;;;;;;5032757;28;20231;-74
2023/08/20 03:16:25;;;;;;;7.17;5.50;;;;;;;;;;5020619;28;20180;-74
2023/08/20 03:19:35;;;;;;;7.03;5.37;;;;;;;;;;5020551;28;20639;-73
2023/08/20 03:22:39;;;;;;;13.93;5.40;;;;;;;;;;5031881;28;20691;-73
2023/08/20 03:25:43;;;;;;;8.10;5.90;;;;;;;;;;5032766;28;20173;-74
2023/08/20 03:28:47;;;;;;;7.17;5.40;;;;;;;;;;5031980;28;20173;-74
2023/08/20 03:31:51;;;;;;;6.30;5.60;;;;;;;;;;5031813;28;20216;-73
2023/08/20 03:34:57;;;;;;;7.40;5.37;;;;;;;;;;5020388;28;20196;-74
2023/08/20 03:38:01;;;;;;;10.40;5.87;;;;;;;;;;5023394;28;20177;-73
2023/08/20 03:41:05;;;;;;;11.20;5.77;;;;;;;;;;5024030;28;20173;-73
2023/08/20 03:44:09;;;;;;;13.53;6.13;;;;;;;;;;5024017;28;20188;-74
2023/08/20 03:47:15;;;;;;;14.47;6.30;;;;;;;;;;5024033;28;20181;-74
2023/08/20 03:50:19;;;;;;;6.50;5.13;;;;;;;;;;5023925;28;20541;-74
2023/08/20 03:53:23;;;;;;;11.57;5.43;;;;;;;;;;5035216;28;20544;-74
2023/08/20 03:56:27;;;;;;;8.80;5.50;;;;;;;;;;5012891;28;20181;-74
2023/08/20 03:59:31;;;;;;;6.67;5.93;;;;;;;;;;5036002;28;20177;-74
2023/08/20 04:02:36;;;;;;;10.17;6.00;;;;;;;;;;5023830;28;20212;-73
2023/08/20 04:05:40;;;;;;;10.97;5.93;;;;;;;;;;5024037;28;20185;-74
2023/08/20 04:08:44;;;;;;;8.90;5.93;;;;;;;;;;5036185;28;20177;-73
2023/08/20 04:11:49;;;;;;;10.83;5.53;;;;;;;;;;5023534;28;20216;-73
2023/08/20 04:14:53;;;;;;;12.67;5.67;;;;;;;;;;5035419;28;20521;-73
2023/08/20 04:17:57;;;;;;;11.30;5.67;;;;;;;;;;5023540;28;20181;-73
2023/08/20 04:21:01;;;;;;;8.33;5.60;;;;;;;;;;5012521;28;20181;-74
2023/08/20 04:24:05;;;;;;;7.20;6.00;;;;;;;;;;5024001;28;20670;-73
2023/08/20 04:27:09;;;;;;;9.27;5.67;;;;;;;;;;5023236;28;20173;-73
2023/08/20 04:30:16;;;;;;;10.30;5.90;;;;;;;;;;5023551;28;20180;-73
2023/08/20 04:33:20;;;;;;;11.20;6.20;;;;;;;;;;5023182;28;20220;-72
2023/08/20 04:36:24;;;;;;;8.33;5.50;;;;;;;;;;5012161;28;20177;-73
2023/08/20 04:39:29;;;;;;;8.23;5.50;;;;;;;;;;5023069;28;20177;-73
2023/08/20 04:42:33;;;;;;;10.23;5.67;;;;;;;;;;5023008;28;20216;-73
2023/08/20 04:45:38;;;;;;;9.03;5.17;;;;;;;;;;5023544;28;20185;-73
2023/08/20 04:48:42;;;;;;;6.47;4.90;;;;;;;;;;5021776;28;20204;-73
2023/08/20 04:51:46;;;;;;;18.47;6.13;;;;;;;;;;5022841;28;20213;-73
2023/08/20 04:54:51;;;;;;;8.07;5.77;;;;;;;;;;5034160;28;20517;-73
2023/08/20 04:57:56;;;;;;;8.40;5.47;;;;;;;;;;5034163;28;20185;-73
2023/08/20 05:01:01;;;;;;;10.97;5.43;;;;;;;;;;5034118;28;20636;-73
2023/08/20 05:04:06;;;;;;;12.10;5.80;;;;;;;;;;5022324;28;20173;-73
2023/08/20 05:07:11;;;;;;;8.37;5.97;;;;;;;;;;5022242;28;20203;-73
2023/08/20 05:10:15;;;;;;;6.37;5.13;;;;;;;;;;5010889;28;20636;-73
2023/08/20 05:13:20;;;;;;;11.00;5.97;;;;;;;;;;5022548;28;20205;-72
2023/08/20 05:16:26;;;;;;;10.70;5.60;;;;;;;;;;5011418;28;20181;-73
2023/08/20 05:19:30;;;;;;;7.20;5.43;;;;;;;;;;5022416;28;20177;-73
2023/08/20 05:22:36;;;;;;;8.17;5.70;;;;;;;;;;5033697;28;20256;-73
2023/08/20 05:25:40;;;;;;;8.60;5.77;;;;;;;;;;5033420;28;20177;-72
2023/08/20 05:28:44;;;;;;;6.40;5.50;;;;;;;;;;5034175;28;20201;-73
2023/08/20 05:31:48;;;;;;;8.50;5.33;;;;;;;;;;5021963;28;20216;-73
2023/08/20 05:34:53;;;;;;;6.30;5.50;;;;;;;;;;5022264;28;20220;-73
2023/08/20 05:37:57;;;;;;;9.83;5.40;;;;;;;;;;5033265;28;20204;-73
2023/08/20 05:41:01;;;;;;;13.77;5.97;;;;;;;;;;5021804;28;20200;-73
2023/08/20 05:44:05;;;;;;;8.17;5.37;;;;;;;;;;5022292;28;20192;-73
2023/08/20 05:47:09;;;;;;;8.87;5.60;;;;;;;;;;5022002;28;20521;-73
2023/08/20 05:50:14;;;;;;;6.43;4.47;;;;;;;;;;5033937;28;20360;-73
2023/08/20 05:53:18;;;;;;;6.07;4.97;;;;;;;;;;5021594;28;20208;-73
2023/08/20 05:56:24;;;;;;;6.17;5.20;;;;;;;;;;5010307;28;20196;-73
2023/08/20 05:59:28;;;;;;;7.40;5.00;;;;;;;;;;5033571;28;20185;-74
2023/08/20 06:02:32;;;;;;;9.83;5.70;;;;;;;;;;5033557;28;20212;-73
2023/08/20 06:05:36;;;;;;;9.80;5.40;;;;;;;;;;5021571;28;20631;-73
2023/08/20 06:08:41;;;;;;;9.70;5.60;;;;;;;;;;5021660;28;20185;-73
2023/08/20 06:11:45;;;;;;;5.90;5.13;;;;;;;;;;5033388;28;20561;-73
2023/08/20 06:14:49;;;;;;;10.37;6.30;;;;;;;;;;5033649;28;20208;-74
2023/08/20 06:17:53;;;;;;;10.23;5.47;;;;;;;;;;5021642;28;20177;-74
2023/08/20 06:20:57;;;;;;;6.73;5.00;;;;;;;;;;5033614;28;20627;-73
2023/08/20 06:24:03;;;;;;;6.90;5.50;;;;;;;;;;5033322;28;20189;-73
2023/08/20 06:27:07;;;;;;;8.80;5.50;;;;;;;;;;5033286;28;20173;-73
2023/08/20 06:30:11;;;;;;;9.50;5.80;;;;;;;;;;5021152;28;20516;-73
2023/08/20 06:33:15;;;;;;;8.37;5.63;;;;;;;;;;5020910;28;20224;-73
2023/08/20 06:36:20;;;;;;;8.40;6.17;;;;;;;;;;5020988;28;20197;-73
2023/08/20 06:39:24;;;;;;;7.93;5.40;;;;;;;;;;5033153;28;20192;-73
2023/08/20 06:42:28;;;;;;;9.50;5.73;;;;;;;;;;5033412;28;20216;-72
2023/08/20 06:45:32;;;;;;;7.67;5.47;;;;;;;;;;5021274;28;20510;-73
2023/08/20 06:48:36;;;;;;;8.63;5.43;;;;;;;;;;5033231;28;20633;-73
2023/08/20 06:51:41;;;;;;;9.57;5.70;;;;;;;;;;5033198;28;20565;-73
2023/08/20 06:54:45;;;;;;;9.87;6.20;;;;;;;;;;5033000;28;20205;-73
2023/08/20 06:57:49;;;;;;;7.37;5.47;;;;;;;;;;5033417;28;20649;-73
2023/08/20 07:00:53;;;;;;;11.70;5.60;;;;;;;;;;5021143;28;20193;-73
2023/08/20 07:03:57;;;;;;;7.53;5.57;;;;;;;;;;5033103;28;20178;-73
2023/08/20 07:07:04;;;;;;;8.00;5.30;;;;;;;;;;5032760;28;20527;-72
2023/08/20 07:10:09;;;;;;;7.37;5.20;;;;;;;;;;5033007;28;20178;-73
2023/08/20 07:13:13;;;;;;;9.27;5.67;;;;;;;;;;5024008;28;20214;-73
2023/08/20 07:16:17;;;;;;;8.00;4.97;;;;;;;;;;5024758;28;20187;-73
2023/08/20 07:19:21;;;;;;;9.17;4.83;;;;;;;;;;5036926;28;20642;-73
2023/08/20 07:22:25;;;;;;;8.07;4.80;;;;;;;;;;5036577;28;20219;-73
2023/08/20 07:25:29;;;;;;;8.97;5.10;;;;;;;;;;5036438;28;20181;-73
2023/08/20 07:31:57;;;;;;;7.97;4.73;;;;;;;;;;5036440;28;20562;-73
2023/08/20 07:35:01;;;;;;;9.07;4.40;;;;;;;;;;5036837;28;20557;-73
2023/08/20 07:38:06;;;;;;;8.20;4.70;;;;;;;;;;5035730;28;20182;-73
2023/08/20 07:41:11;;;;;;;7.30;4.18;;;;;;;;;;5036139;28;20182;-73
2023/08/20 07:44:15;;;;;;;11.35;4.28;;;;;;;;;;5036166;28;20186;-73
2023/08/20 07:47:20;;;;;;;6.53;4.40;;;;;;;;;;5019350;28;20196;-72
2023/08/20 07:50:24;;;;;;;10.73;3.95;;;;;;;;;;5024171;28;20183;-73
2023/08/20 07:53:28;;;;;;;9.50;4.53;;;;;;;;;;5012461;28;20666;-72
2023/08/20 07:56:32;;;;;;;8.18;4.60;;;;;;;;;;5012783;28;20196;-73
2023/08/20 07:59:37;;;;;;;9.43;4.43;;;;;;;;;;5025963;28;20200;-73
2023/08/20 08:02:42;;;;;;;9.65;4.50;;;;;;;;;;5025332;28;20215;-73
2023/08/20 08:05:50;;;;;;;9.90;4.05;;;;;;;;;;5024744;28;20181;-73
2023/08/20 08:08:54;;;;;;;8.60;4.15;;;;;;;;;;5026233;28;20189;-72
2023/08/20 08:11:59;;;;;;;5.80;3.95;;;;;;;;;;5025278;28;20217;-73
2023/08/20 08:15:03;;;;;;;7.50;4.38;;;;;;;;;;5023720;28;20205;-73
2023/08/20 08:18:08;;;;;;;8.63;4.10;;;;;;;;;;5023816;28;20189;-73
2023/08/20 08:21:12;;;;;;;6.53;3.67;;;;;;;;;;5025514;28;20181;-74
2023/08/20 08:24:16;;;;;;;5.65;3.85;;;;;;;;;;5023408;28;20192;-74
2023/08/20 08:27:20;;;;;;;5.85;3.63;;;;;;;;;;5023458;28;20181;-74
2023/08/20 08:30:24;;;;;;;5.80;3.88;;;;;;;;;;5013754;28;20530;-73
2023/08/20 08:33:28;;;;;;;7.40;3.33;;;;;;;;;;5026088;28;20201;-73
2023/08/20 08:36:32;;;;;;;5.13;3.40;;;;;;;;;;5026795;28;20661;-73
2023/08/20 08:39:36;;;;;;;9.35;3.67;;;;;;;;;;5025363;28;20652;-73
2023/08/20 08:42:44;;;;;;;8.30;3.50;;;;;;;;;;5024572;28;20563;-73
2023/08/20 08:45:50;;;;;;;8.32;4.05;;;;;;;;;;5023679;28;20260;-73
2023/08/20 08:48:55;;;;;;;5.07;3.60;;;;;;;;;;5025392;28;20186;-72
2023/08/20 08:51:59;;;;;;;5.88;3.70;;;;;;;;;;5026323;28;20217;-73
2023/08/20 08:55:07;;;;;;;6.20;3.45;;;;;;;;;;5025127;28;20210;-73
2023/08/20 08:58:12;;;;;;;5.32;3.42;;;;;;;;;;5007981;28;20185;-72
2023/08/20 09:01:16;;;;;;;7.10;3.35;;;;;;;;;;5022831;28;20213;-73
2023/08/20 09:04:20;;;;;;;6.25;3.60;;;;;;;;;;5022976;28;20193;-73
2023/08/20 09:07:25;;;;;;;4.75;2.97;;;;;;;;;;5022784;28;20181;-73
2023/08/20 09:10:29;;;;;;;4.93;3.33;;;;;;;;;;5013264;28;20193;-73
2023/08/20 09:13:38;;;;;;;4.70;3.33;;;;;;;;;;5025225;28;20185;-72
2023/08/20 09:16:42;;;;;;;7.60;3.13;;;;;;;;;;5023898;28;20185;-73
2023/08/20 09:19:46;;;;;;;4.38;2.97;;;;;;;;;;5023337;28;20189;-72
2023/08/20 09:22:51;;;;;;;7.13;3.13;;;;;;;;;;5028280;28;20565;-73
2023/08/20 09:25:55;;;;;;;3.72;3.08;;;;;;;;;;5034220;28;20173;-74
2023/08/20 09:28:59;;;;;;;3.78;3.05;;;;;;;;;;5021369;28;20173;-73
2023/08/20 09:32:03;;;;;;;4.75;2.85;;;;;;;;;;5021900;28;20213;-73
2023/08/20 09:35:18;;;;;;;5.95;3.22;;;;;;;;;;5001488;28;20229;-74
2023/08/20 09:38:24;;;;;;;4.18;2.90;;;;;;;;;;5002165;28;20179;-73
2023/08/20 09:41:29;;;;;;;3.83;2.97;;;;;;;;;;5014325;28;20217;-73
2023/08/20 09:44:37;;;;;;;7.60;3.13;;;;;;;;;;5014079;28;20170;-73
2023/08/20 09:47:45;;;;;;;3.42;3.05;;;;;;;;;;5014042;28;20186;-73
2023/08/20 09:50:51;;;;;;;5.22;3.35;;;;;;;;;;4990886;28;20633;-74
2023/08/20 09:54:04;;;;;;;3.85;2.80;;;;;;;;;;5013874;28;20178;-74
2023/08/20 09:57:14;;;;;;;4.32;3.20;;;;;;;;;;5013867;28;20525;-73
2023/08/20 10:00:18;;;;;;;5.80;3.10;;;;;;;;;;4990700;28;20177;-73
2023/08/20 10:03:23;;;;;;;3.85;3.15;;;;;;;;;;5013738;28;20173;-73
2023/08/20 10:06:29;;;;;;;3.47;3.08;;;;;;;;;;5001725;28;20182;-73
2023/08/20 10:09:33;;;;;;;4.03;3.35;;;;;;;;;;5013672;28;20197;-72
2023/08/20 10:12:39;;;;;;;5.80;3.40;;;;;;;;;;5013478;28;20225;-74
2023/08/20 10:15:43;;;;;;;5.60;3.75;;;;;;;;;;5013915;28;20209;-73
2023/08/20 10:18:47;;;;;;;3.85;3.42;;;;;;;;;;5013685;28;20181;-73
2023/08/20 10:21:56;;;;;;;3.60;3.30;;;;;;;;;;5013481;28;20213;-73
2023/08/20 10:25:02;;;;;;;5.35;3.30;;;;;;;;;;5013610;28;20525;-73
2023/08/20 10:28:20;;;;;;;5.47;3.47;;;;;;;;;;5001425;28;20189;-74
2023/08/20 10:31:25;;;;;;;3.70;3.35;;;;;;;;;;5013244;28;20214;-73
2023/08/20 10:34:35;;;;;;;4.57;3.20;;;;;;;;;;5013282;28;20564;-74
2023/08/20 10:37:41;;;;;;;6.60;3.90;;;;;;;;;;5013282;28;20182;-73
2023/08/20 10:40:58;;;;;;;3.20;2.90;;;;;;;;;;5004832;28;20541;-73
2023/08/20 10:44:02;;;;;;;3.78;3.38;;;;;;;;;;5014937;28;20189;-73
2023/08/20 10:47:06;;;;;;;4.00;3.58;;;;;;;;;;5031913;28;20185;-74
2023/08/20 10:50:15;;;;;;;3.67;3.38;;;;;;;;;;5032818;28;20542;-73
2023/08/20 10:53:22;;;;;;;9.40;3.50;;;;;;;;;;5032833;28;20173;-74
2023/08/20 10:56:46;;;;;;;5.65;3.33;;;;;;;;;;5032807;28;20208;-74
2023/08/20 11:00:00;;;;;;;4.18;3.20;;;;;;;;;;5032832;28;20177;-74
2023/08/20 11:03:05;;;;;;;6.57;3.88;;;;;;;;;;5020482;28;20556;-74
2023/08/20 11:06:11;;;;;;;3.95;3.53;;;;;;;;;;5032923;28;20168;-74
2023/08/20 11:09:15;;;;;;;4.10;3.20;;;;;;;;;;5009748;28;20177;-74
2023/08/20 11:12:20;;;;;;;3.30;3.00;;;;;;;;;;5032578;28;20215;-73
2023/08/20 11:15:26;;;;;;;3.80;3.10;;;;;;;;;;5032533;28;20221;-73
2023/08/20 11:18:34;;;;;;;3.50;3.22;;;;;;;;;;5020500;28;20177;-73
2023/08/20 11:21:40;;;;;;;3.92;3.40;;;;;;;;;;5020619;28;20212;-74
2023/08/20 11:24:44;;;;;;;3.97;3.17;;;;;;;;;;5032599;28;20652;-73
2023/08/20 11:27:50;;;;;;;3.63;3.33;;;;;;;;;;5032909;28;20185;-74
2023/08/20 11:30:55;;;;;;;3.35;3.05;;;;;;;;;;5032440;28;20177;-74
2023/08/20 11:34:02;;;;;;;6.03;3.47;;;;;;;;;;5032565;28;20197;-74
2023/08/20 11:37:06;;;;;;;6.60;3.30;;;;;;;;;;5010936;28;20182;-73
2023/08/20 11:40:10;;;;;;;7.65;3.30;;;;;;;;;;5020325;28;20180;-74
2023/08/20 11:43:14;;;;;;;5.60;3.38;;;;;;;;;;5032419;28;20208;-74
2023/08/20 11:46:21;;;;;;;4.03;3.17;;;;;;;;;;5020728;28;20176;-74
2023/08/20 11:49:29;;;;;;;5.20;3.10;;;;;;;;;;5020493;28;20176;-74
2023/08/20 11:52:35;;;;;;;4.80;3.10;;;;;;;;;;5032283;28;20208;-74
2023/08/20 11:55:41;;;;;;;4.78;3.28;;;;;;;;;;5032284;28;20196;-74
2023/08/20 11:58:51;;;;;;;6.03;3.42;;;;;;;;;;5022790;28;20181;-74
2023/08/20 12:01:58;;;;;;;6.30;2.97;;;;;;;;;;5035657;28;20220;-73
2023/08/20 12:05:03;;;;;;;3.42;2.85;;;;;;;;;;5035808;28;20177;-74
2023/08/20 12:08:07;;;;;;;5.38;3.28;;;;;;;;;;5036206;28;20177;-75
2023/08/20 12:11:11;;;;;;;4.05;3.38;;;;;;;;;;5035539;28;20185;-76
2023/08/20 12:14:15;;;;;;;4.07;3.58;;;;;;;;;;5035822;28;20185;-76
2023/08/20 12:17:19;;;;;;;5.65;2.92;;;;;;;;;;5035759;28;20521;-76
2023/08/20 12:20:23;;;;;;;5.50;3.17;;;;;;;;;;5035643;28;20180;-76
2023/08/20 12:23:27;;;;;;;4.53;3.05;;;;;;;;;;5035629;28;20177;-75
2023/08/20 12:26:31;;;;;;;5.55;3.10;;;;;;;;;;5023160;28;20177;-75
2023/08/20 12:29:36;;;;;;;4.75;3.05;;;;;;;;;;5035534;28;20177;-75
2023/08/20 12:32:39;;;;;;;4.32;3.42;;;;;;;;;;5035235;28;20208;-75
2023/08/20 12:35:43;;;;;;;3.13;2.80;;;;;;;;;;5021740;28;20220;-74
2023/08/20 12:38:47;;;;;;;6.80;3.08;;;;;;;;;;5034149;28;20184;-73
2023/08/20 12:41:52;;;;;;;4.97;3.00;;;;;;;;;;5021978;28;20572;-74
2023/08/20 12:44:56;;;;;;;5.25;3.42;;;;;;;;;;5034123;28;20185;-73
2023/08/20 12:48:00;;;;;;;5.80;2.85;;;;;;;;;;5034115;28;20530;-74
2023/08/20 12:51:04;;;;;;;4.50;2.90;;;;;;;;;;5010612;28;20525;-74
2023/08/20 12:54:08;;;;;;;4.70;3.25;;;;;;;;;;5022176;28;20620;-74
2023/08/20 12:57:12;;;;;;;5.57;3.30;;;;;;;;;;5033742;28;20205;-74
2023/08/20 13:00:16;;;;;;;3.50;3.20;;;;;;;;;;5021812;28;20200;-74
2023/08/20 13:03:20;;;;;;;6.95;3.40;;;;;;;;;;5021939;28;20528;-75
2023/08/20 13:06:25;;;;;;;5.10;3.08;;;;;;;;;;5021452;28;20528;-75
2023/08/20 13:09:29;;;;;;;5.50;3.50;;;;;;;;;;5032869;28;20173;-75
2023/08/20 13:12:34;;;;;;;4.95;3.33;;;;;;;;;;5033654;28;20220;-75
2023/08/20 13:15:38;;;;;;;5.65;3.40;;;;;;;;;;5024853;28;20206;-75
2023/08/20 13:18:43;;;;;;;4.45;3.38;;;;;;;;;;5011685;28;20177;-76
2023/08/20 13:21:47;;;;;;;8.23;3.40;;;;;;;;;;5012049;28;20216;-75
2023/08/20 13:24:51;;;;;;;11.05;3.63;;;;;;;;;;5033191;28;20537;-74
2023/08/20 13:27:55;;;;;;;4.50;3.03;;;;;;;;;;5033711;28;20170;-75
2023/08/20 13:30:59;;;;;;;4.68;3.10;;;;;;;;;;5032309;28;20201;-74
2023/08/20 13:34:03;;;;;;;4.97;3.80;;;;;;;;;;4993458;28;1067699;-75
2023/08/20 13:37:08;;;;;;;5.97;2.97;;;;;;;;;;5034075;28;20216;-75
2023/08/20 13:40:12;;;;;;;4.45;3.13;;;;;;;;;;5022041;28;20177;-75
2023/08/20 13:43:16;;;;;;;7.60;3.20;;;;;;;;;;5033465;28;20221;-75
2023/08/20 13:46:20;;;;;;;5.32;3.28;;;;;;;;;;5033183;28;20177;-75
2023/08/20 13:49:25;;;;;;;5.68;3.33;;;;;;;;;;5018073;28;20193;-75
2023/08/20 13:52:29;;;;;;;3.45;2.95;;;;;;;;;;5033848;28;20242;-74
2023/08/20 13:55:33;;;;;;;4.82;3.00;;;;;;;;;;5020376;28;20220;-75
2023/08/20 13:58:38;;;;;;;4.75;3.10;;;;;;;;;;5019577;28;20560;-74
2023/08/20 14:01:41;;;;;;;4.60;2.92;;;;;;;;;;5021505;28;20217;-75
2023/08/20 14:04:46;;;;;;;5.63;3.03;;;;;;;;;;5033732;28;20185;-74
2023/08/20 14:07:50;;;;;;;4.40;3.40;;;;;;;;;;5033720;28;20181;-74
2023/08/20 14:10:54;;;;;;;5.18;3.28;;;;;;;;;;5033566;28;20181;-74
2023/08/20 14:13:58;;;;;;;4.78;3.40;;;;;;;;;;5009980;28;20201;-74
2023/08/20 14:17:02;;;;;;;3.55;2.97;;;;;;;;;;5010008;28;20205;-74
2023/08/20 14:20:08;;;;;;;3.75;3.08;;;;;;;;;;5033253;28;20185;-74
2023/08/20 14:23:12;;;;;;;4.85;3.17;;;;;;;;;;5033312;28;20209;-74
2023/08/20 14:26:16;;;;;;;2.90;2.65;;;;;;;;;;5033365;28;20177;-74
2023/08/20 14:29:20;;;;;;;3.60;3.13;;;;;;;;;;5021397;28;20201;-74
2023/08/20 14:32:24;;;;;;;4.43;2.90;;;;;;;;;;5021202;28;20217;-75
2023/08/20 14:35:28;;;;;;;4.22;2.90;;;;;;;;;;5034962;28;20204;-74
2023/08/20 14:38:33;;;;;;;4.50;3.10;;;;;;;;;;5033399;28;20172;-75
2023/08/20 14:41:37;;;;;;;3.88;3.10;;;;;;;;;;5033408;28;20687;-74
2023/08/20 14:44:40;;;;;;;4.10;3.17;;;;;;;;;;5021196;28;20185;-74
2023/08/20 14:47:44;;;;;;;4.10;3.05;;;;;;;;;;5020960;28;20181;-74
2023/08/20 14:50:50;;;;;;;4.50;3.20;;;;;;;;;;5021131;28;20173;-74
2023/08/20 14:53:55;;;;;;;5.07;3.05;;;;;;;;;;5032943;28;20197;-75
2023/08/20 14:56:59;;;;;;;3.30;3.00;;;;;;;;;;5027425;28;20683;-74
2023/08/20 15:00:07;;;;;;;5.50;3.08;;;;;;;;;;5027510;28;20197;-75
2023/08/20 15:03:11;;;;;;;5.20;3.33;;;;;;;;;;5032981;28;20221;-74
2023/08/20 15:06:16;;;;;;;3.72;3.20;;;;;;;;;;5019014;28;20193;-74
2023/08/20 15:09:21;;;;;;;5.20;2.90;;;;;;;;;;5002736;28;20205;-74
2023/08/20 15:12:25;;;;;;;7.95;3.10;;;;;;;;;;5019972;28;20220;-74
2023/08/20 15:15:29;;;;;;;5.88;3.03;;;;;;;;;;5010794;28;20197;-74
2023/08/20 15:18:33;;;;;;;5.63;3.30;;;;;;;;;;5017529;28;20189;-74
2023/08/20 15:21:37;;;;;;;4.32;2.92;;;;;;;;;;5009535;28;20220;-75
2023/08/20 15:24:41;;;;;;;6.88;2.88;;;;;;;;;;5022601;28;20205;-75
2023/08/20 15:27:46;;;;;;;4.10;3.20;;;;;;;;;;5008311;28;20676;-77
2023/08/20 15:30:51;;;;;;;6.55;3.38;;;;;;;;;;5020907;28;20193;-74
2023/08/20 15:33:55;;;;;;;7.07;3.47;;;;;;;;;;5015565;28;20559;-74
2023/08/20 15:36:59;;;;;;;4.78;2.72;;;;;;;;;;5015899;28;20214;-74
2023/08/20 15:40:08;;;;;;;5.30;3.00;;;;;;;;;;5030201;28;20205;-75
2023/08/20 15:43:12;;;;;;;5.00;3.20;;;;;;;;;;5021547;28;20224;-75
2023/08/20 15:46:16;;;;;;;6.93;3.30;;;;;;;;;;5030096;28;20192;-75
2023/08/20 15:49:21;;;;;;;3.63;3.05;;;;;;;;;;5020583;28;20202;-75
2023/08/20 15:52:25;;;;;;;7.57;3.45;;;;;;;;;;5018119;28;20220;-74
2023/08/20 15:55:29;;;;;;;6.63;3.40;;;;;;;;;;5016372;28;20174;-74
2023/08/20 15:58:33;;;;;;;3.70;3.00;;;;;;;;;;5019800;28;20200;-75
2023/08/20 16:01:38;;;;;;;6.00;3.33;;;;;;;;;;5022545;28;20220;-74
2023/08/20 16:04:42;;;;;;;5.97;3.17;;;;;;;;;;5034666;28;20204;-73
2023/08/20 16:07:47;;;;;;;5.78;3.22;;;;;;;;;;5035225;28;20197;-75
2023/08/20 16:10:51;;;;;;;6.63;2.80;;;;;;;;;;5033430;28;20216;-74
2023/08/20 16:13:54;;;;;;;6.18;3.03;;;;;;;;;;5023579;28;20185;-74
2023/08/20 16:16:59;;;;;;;3.08;2.63;;;;;;;;;;5032514;28;20216;-73
2023/08/20 16:20:04;;;;;;;3.55;2.47;;;;;;;;;;5029026;28;20193;-74
2023/08/20 16:23:08;;;;;;;471.83;376.98;;;;;;;;;;5022519;28;20217;-74
2023/08/20 16:26:12;;;;;;;64.20;45.97;;;;;;;;;;5026607;28;20542;-75
2023/08/20 16:29:16;;;;;;;23.73;18.27;;;;;;;;;;5020424;28;20718;-74
2023/08/20 16:32:20;;;;;;;33.72;7.95;;;;;;;;;;5008439;28;20750;-75
2023/08/20 16:35:25;;;;;;;19.90;5.45;;;;;;;;;;5034098;28;20737;-74
2023/08/20 16:38:30;;;;;;;7.15;3.45;;;;;;;;;;5027121;28;20185;-74
2023/08/20 16:41:34;;;;;;;429.30;319.25;;;;;;;;;;5031422;28;20571;-74
2023/08/20 16:44:38;;;;;;;693.40;618.78;;;;;;;;;;5032803;28;20191;-74
2023/08/20 16:47:42;;;;;;;1221.75;898.53;;;;;;;;;;5029337;28;20675;-74
2023/08/20 16:50:48;;;;;;;675.28;605.10;;;;;;;;;;5004696;28;20195;-74
2023/08/20 16:53:53;;;;;;;747.92;662.45;;;;;;;;;;5021854;28;20200;-74
2023/08/20 16:56:56;;;;;;;534.75;477.10;;;;;;;;;;5010319;28;20232;-75
2023/08/20 17:00:00;;;;;;;780.90;698.30;;;;;;;;;;5024999;28;20195;-73
2023/08/20 17:03:04;;;;;;;432.33;386.58;;;;;;;;;;5023323;28;20224;-74
2023/08/20 17:06:09;;;;;;;353.13;317.45;;;;;;;;;;5016448;28;20217;-74
2023/08/20 17:09:13;;;;;;;353.35;315.73;;;;;;;;;;5015111;28;20913;-74
2023/08/20 17:12:17;;;;;;;610.22;548.90;;;;;;;;;;5002763;28;20594;-74
2023/08/20 17:15:21;;;;;;;54.15;48.33;;;;;;;;;;5003034;28;20193;-74
2023/08/20 17:18:26;;;;;;;6.93;5.00;;;;;;;;;;5002874;28;20217;-74
2023/08/20 17:21:31;;;;;;;7.82;3.60;;;;;;;;;;5002454;28;20217;-74
2023/08/20 17:24:36;;;;;;;6.30;3.97;;;;;;;;;;5014673;28;20662;-74
2023/08/20 17:27:40;;;;;;;8.95;3.83;;;;;;;;;;5014973;28;20511;-74
2023/08/20 17:30:44;;;;;;;9.48;3.40;;;;;;;;;;5002412;28;20182;-74
2023/08/20 17:33:48;;;;;;;8.23;3.85;;;;;;;;;;5014582;28;20525;-75
2023/08/20 17:36:52;;;;;;;10.35;3.70;;;;;;;;;;5014877;28;20218;-74
2023/08/20 17:39:56;;;;;;;9.68;3.50;;;;;;;;;;5014517;28;20182;-74
2023/08/20 17:43:00;;;;;;;9.82;4.10;;;;;;;;;;5014329;28;20214;-74
2023/08/20 17:46:04;;;;;;;7.03;3.65;;;;;;;;;;5023215;28;20672;-74
2023/08/20 17:49:08;;;;;;;5.97;3.65;;;;;;;;;;5033985;28;20192;-74
2023/08/20 17:52:12;;;;;;;5.15;3.72;;;;;;;;;;5022020;28;20215;-73
2023/08/20 17:55:16;;;;;;;6.15;3.80;;;;;;;;;;5032659;28;20658;-73
2023/08/20 17:58:21;;;;;;;11.27;3.40;;;;;;;;;;5033681;28;20225;-74
2023/08/20 18:01:25;;;;;;;7.70;3.90;;;;;;;;;;5021888;28;20219;-73
2023/08/20 18:04:30;;;;;;;8.15;4.00;;;;;;;;;;5033806;28;20173;-73
2023/08/20 18:07:34;;;;;;;6.85;4.45;;;;;;;;;;5022819;28;20184;-73
2023/08/20 18:10:38;;;;;;;7.90;4.70;;;;;;;;;;5013823;28;20202;-73
2023/08/20 18:13:42;;;;;;;8.93;4.70;;;;;;;;;;5002006;28;20180;-72
2023/08/20 18:16:46;;;;;;;7.30;5.07;;;;;;;;;;5013917;28;20178;-72
2023/08/20 18:19:51;;;;;;;6.90;3.60;;;;;;;;;;5013667;28;20184;-73
2023/08/20 18:22:55;;;;;;;8.65;3.72;;;;;;;;;;5013804;28;20217;-71
2023/08/20 18:25:59;;;;;;;8.00;3.67;;;;;;;;;;5012838;28;20185;-73
2023/08/20 18:29:03;;;;;;;5.28;3.83;;;;;;;;;;5012803;28;20175;-72